createdAt,value
2019-03-19T00:01:48.925Z,101087.36
2019-03-19T00:04:19.287Z,101092.69
2019-03-19T00:06:50.714Z,101093.33
2019-03-19T00:09:21.057Z,101090.17
2019-03-19T00:11:51.438Z,101092.66
2019-03-19T00:14:22.860Z,101105.53
2019-03-19T00:16:53.234Z,101104.14
2019-03-19T00:19:23.591Z,101103.61
2019-03-19T00:21:53.942Z,101107.11
2019-03-19T00:24:24.355Z,101110.48
2019-03-19T00:26:54.719Z,101118.23
2019-03-19T00:29:25.053Z,101112.30
2019-03-19T00:31:55.401Z,101115.38
2019-03-19T00:34:25.758Z,101114.36
2019-03-19T00:36:56.108Z,101120.75
2019-03-19T00:39:26.453Z,101124.72
2019-03-19T00:41:56.811Z,101140.69
2019-03-19T00:44:27.148Z,101139.55
2019-03-19T00:46:57.503Z,101136.33
2019-03-19T00:49:27.880Z,101141.81
2019-03-19T00:51:58.222Z,101143.42
2019-03-19T00:54:28.583Z,101144.66
2019-03-19T00:56:58.941Z,101146.06
2019-03-19T00:59:29.269Z,101143.69
2019-03-19T01:01:59.627Z,101148.64
2019-03-19T01:04:30.952Z,101146.92
2019-03-19T01:07:01.320Z,101154.12
2019-03-19T01:09:31.686Z,101150.25
2019-03-19T01:12:02.042Z,101153.38
2019-03-19T01:14:32.413Z,101156.70
2019-03-19T01:17:02.738Z,101153.25
2019-03-19T01:19:33.078Z,101149.77
2019-03-19T01:22:03.440Z,101151.00
2019-03-19T01:24:33.786Z,101157.94
2019-03-19T01:27:04.141Z,101156.53
2019-03-19T01:29:35.672Z,101160.67
2019-03-19T01:32:06.081Z,101161.27
2019-03-19T01:34:36.459Z,101161.33
2019-03-19T01:37:06.832Z,101163.91
2019-03-19T01:39:37.186Z,101169.11
2019-03-19T01:42:07.531Z,101164.71
2019-03-19T01:44:37.903Z,101180.41
2019-03-19T01:47:08.260Z,101178.63
2019-03-19T01:49:38.622Z,101172.29
2019-03-19T01:52:09.285Z,101177.72
2019-03-19T01:54:39.642Z,101178.15
2019-03-19T01:57:10.003Z,101176.75
2019-03-19T01:59:40.356Z,101170.56
2019-03-19T02:02:10.716Z,101177.83
2019-03-19T02:04:41.072Z,101177.18
2019-03-19T02:07:11.416Z,101172.50
2019-03-19T02:09:41.774Z,101177.98
2019-03-19T02:12:12.118Z,101175.12
2019-03-19T02:14:42.401Z,101179.21
2019-03-19T02:17:12.925Z,101179.85
2019-03-19T02:19:43.450Z,101193.53
2019-03-19T02:22:13.802Z,101198.03
2019-03-19T02:24:44.242Z,101197.66
2019-03-19T02:27:14.580Z,101205.30
2019-03-19T02:29:44.941Z,101202.23
2019-03-19T02:32:15.282Z,101205.88
2019-03-19T02:34:45.635Z,101208.02
2019-03-19T02:37:17.065Z,101210.12
2019-03-19T02:39:47.425Z,101215.95
2019-03-19T02:42:17.780Z,101215.42
2019-03-19T02:44:48.113Z,101218.16
2019-03-19T02:47:18.487Z,101226.21
2019-03-19T02:49:48.895Z,101221.14
2019-03-19T02:52:19.248Z,101230.05
2019-03-19T02:54:49.591Z,101228.50
2019-03-19T02:57:19.972Z,101226.09
2019-03-19T02:59:50.443Z,101232.56
2019-03-19T03:02:20.743Z,101242.13
2019-03-19T03:04:51.099Z,101240.28
2019-03-19T03:07:21.460Z,101241.68
2019-03-19T03:09:51.807Z,101249.98
2019-03-19T03:12:22.141Z,101247.61
2019-03-19T03:14:52.501Z,101256.39
2019-03-19T03:17:22.868Z,101260.17
2019-03-19T03:19:53.232Z,101260.87
2019-03-19T03:22:23.568Z,101265.87
2019-03-19T03:24:53.913Z,101269.98
2019-03-19T03:27:24.271Z,101270.06
2019-03-19T03:29:54.626Z,101277.98
2019-03-19T03:32:24.971Z,101281.63
2019-03-19T03:34:55.306Z,101282.50
2019-03-19T03:37:25.666Z,101280.91
2019-03-19T03:39:56.017Z,101290.31
2019-03-19T03:42:26.415Z,101295.11
2019-03-19T03:44:56.786Z,101294.09
2019-03-19T03:47:27.127Z,101295.52
2019-03-19T03:49:57.482Z,101290.48
2019-03-19T03:52:27.857Z,101302.78
2019-03-19T03:54:58.222Z,101301.82
2019-03-19T03:57:28.705Z,101309.78
2019-03-19T03:59:59.136Z,101316.48
2019-03-19T04:02:29.496Z,101321.87
2019-03-19T04:04:59.845Z,101319.93
2019-03-19T04:07:30.221Z,101329.38
2019-03-19T04:10:00.669Z,101334.66
2019-03-19T04:12:31.274Z,101339.27
2019-03-19T04:15:01.646Z,101342.94
2019-03-19T04:17:32.334Z,101356.50
2019-03-19T04:20:05.277Z,101356.12
2019-03-19T04:22:35.749Z,101361.64
2019-03-19T04:25:07.407Z,101357.16
2019-03-19T04:27:40.329Z,101367.77
2019-03-19T04:30:20.341Z,101370.80
2019-03-19T04:32:50.745Z,101381.20
2019-03-19T04:35:21.111Z,101385.28
2019-03-19T04:37:51.507Z,101386.66
2019-03-19T04:40:21.870Z,101387.10
2019-03-19T04:42:52.227Z,101381.80
2019-03-19T04:45:22.586Z,101387.00
2019-03-19T04:47:53.037Z,101381.10
2019-03-19T04:50:23.481Z,101385.11
2019-03-19T04:52:53.848Z,101387.99
2019-03-19T04:55:24.356Z,101392.56
2019-03-19T04:57:54.751Z,101401.55
2019-03-19T05:00:25.087Z,101411.77
2019-03-19T05:02:55.424Z,101412.67
2019-03-19T05:05:25.783Z,101425.92
2019-03-19T05:07:56.255Z,101418.09
2019-03-19T05:10:26.693Z,101427.85
2019-03-19T05:12:57.068Z,101433.34
2019-03-19T05:15:27.441Z,101427.41
2019-03-19T05:17:57.800Z,101422.88
2019-03-19T05:20:28.175Z,101435.49
2019-03-19T05:22:58.529Z,101429.37
2019-03-19T05:25:28.882Z,101442.48
2019-03-19T05:27:59.301Z,101445.38
2019-03-19T05:30:29.808Z,101449.81
2019-03-19T05:33:00.173Z,101454.78
2019-03-19T05:35:30.606Z,101454.73
2019-03-19T05:38:00.973Z,101457.11
2019-03-19T05:40:31.458Z,101460.20
2019-03-19T05:43:01.902Z,101461.16
2019-03-19T05:45:32.255Z,101464.77
2019-03-19T05:48:02.628Z,101470.30
2019-03-19T05:50:33.018Z,101473.30
2019-03-19T05:53:04.532Z,101479.66
2019-03-19T05:55:34.926Z,101485.47
2019-03-19T05:58:05.264Z,101489.64
2019-03-19T06:00:37.420Z,101493.99
2019-03-19T06:03:07.909Z,101495.92
2019-03-19T06:05:39.135Z,101503.11
2019-03-19T06:08:10.182Z,101501.33
2019-03-19T06:10:40.788Z,101509.05
2019-03-19T06:13:11.579Z,101508.72
2019-03-19T06:15:42.524Z,101513.17
2019-03-19T06:18:16.155Z,101515.44
2019-03-19T06:20:46.520Z,101516.20
2019-03-19T06:23:16.981Z,101520.59
2019-03-19T06:25:47.742Z,101521.33
2019-03-19T06:28:18.121Z,101525.17
2019-03-19T06:30:48.481Z,101530.45
2019-03-19T06:33:18.855Z,101531.00
2019-03-19T06:35:49.322Z,101533.33
2019-03-19T06:38:20.519Z,101532.11
2019-03-19T06:40:51.272Z,101533.23
2019-03-19T06:43:22.760Z,101535.41
2019-03-19T06:45:53.129Z,101543.98
2019-03-19T06:48:23.491Z,101547.73
2019-03-19T06:50:53.881Z,101552.88
2019-03-19T06:53:24.298Z,101549.36
2019-03-19T06:55:54.679Z,101558.54
2019-03-19T06:58:25.048Z,101558.02
2019-03-19T07:00:55.424Z,101558.39
2019-03-19T07:03:25.837Z,101565.22
2019-03-19T07:05:56.216Z,101568.75
2019-03-19T07:08:26.640Z,101576.07
2019-03-19T07:10:56.991Z,101578.56
2019-03-19T07:13:27.493Z,101575.80
2019-03-19T07:16:00.352Z,101579.64
2019-03-19T07:18:30.712Z,101581.06
2019-03-19T07:21:01.174Z,101583.94
2019-03-19T07:23:31.550Z,101584.62
2019-03-19T07:26:01.900Z,101590.35
2019-03-19T07:28:32.267Z,101586.14
2019-03-19T07:31:02.705Z,101593.28
2019-03-19T07:33:33.075Z,101603.14
2019-03-19T07:36:03.449Z,101596.11
2019-03-19T07:38:33.808Z,101600.02
2019-03-19T07:41:04.937Z,101602.28
2019-03-19T07:43:35.306Z,101604.44
2019-03-19T07:46:05.662Z,101601.89
2019-03-19T07:48:36.046Z,101595.30
2019-03-19T07:51:06.408Z,101592.28
2019-03-19T07:53:36.771Z,101603.55
2019-03-19T07:56:07.132Z,101604.02
2019-03-19T07:58:45.223Z,101603.28
2019-03-19T08:01:09.532Z,101613.70
2019-03-19T08:03:39.910Z,101622.69
2019-03-19T08:06:10.310Z,101629.50
2019-03-19T08:08:40.670Z,101628.97
2019-03-19T08:11:13.084Z,101635.48
2019-03-19T08:13:43.159Z,101636.13
2019-03-19T08:16:13.555Z,101647.33
2019-03-19T08:18:43.939Z,101647.34
2019-03-19T08:21:14.303Z,101651.23
2019-03-19T08:23:44.663Z,101657.45
2019-03-19T08:26:16.650Z,101661.24
2019-03-19T08:28:55.049Z,101660.95
2019-03-19T08:31:19.136Z,101665.89
2019-03-19T08:33:49.502Z,101677.70
2019-03-19T08:36:38.320Z,101684.52
2019-03-19T08:39:08.680Z,101684.94
2019-03-19T08:41:39.056Z,101682.67
2019-03-19T08:44:09.483Z,101696.34
2019-03-19T08:46:39.863Z,101693.18
2019-03-19T08:49:10.348Z,101699.25
2019-03-19T08:51:40.703Z,101693.24
2019-03-19T08:54:11.057Z,101701.61
2019-03-19T08:56:42.855Z,101700.15
2019-03-19T08:59:13.236Z,101705.97
2019-03-19T09:01:43.603Z,101709.69
2019-03-19T09:04:13.971Z,101717.57
2019-03-19T09:06:44.343Z,101719.08
2019-03-19T09:09:14.728Z,101716.81
2019-03-19T09:11:45.103Z,101724.42
2019-03-19T09:14:15.485Z,101724.95
2019-03-19T09:16:45.848Z,101726.62
2019-03-19T09:19:16.216Z,101730.25
2019-03-19T09:21:46.577Z,101729.73
2019-03-19T09:24:16.911Z,101731.34
2019-03-19T09:26:47.455Z,101740.10
2019-03-19T09:29:17.889Z,101741.94
2019-03-19T09:31:48.263Z,101742.42
2019-03-19T09:34:18.608Z,101746.81
2019-03-19T09:36:56.950Z,101748.05
2019-03-19T09:39:21.152Z,101746.81
2019-03-19T09:41:51.540Z,101746.53
2019-03-19T09:44:21.936Z,101747.72
2019-03-19T09:46:52.284Z,101747.85
2019-03-19T09:49:23.712Z,101753.87
2019-03-19T09:51:54.063Z,101756.36
2019-03-19T09:54:24.417Z,101756.67
2019-03-19T09:56:55.293Z,101756.34
2019-03-19T09:59:27.345Z,101755.47
2019-03-19T10:01:57.890Z,101756.84
2019-03-19T10:04:28.243Z,101763.41
2019-03-19T10:07:06.013Z,101765.59
2019-03-19T10:09:30.686Z,101763.06
2019-03-19T10:12:01.043Z,101769.07
2019-03-19T10:14:31.411Z,101768.70
2019-03-19T10:17:02.901Z,101776.03
2019-03-19T10:19:33.279Z,101776.94
2019-03-19T10:22:03.634Z,101777.50
2019-03-19T10:24:34.052Z,101775.25
2019-03-19T10:27:04.412Z,101782.04
2019-03-19T10:29:38.585Z,101777.86
2019-03-19T10:32:06.827Z,101780.94
2019-03-19T10:34:37.208Z,101781.63
2019-03-19T10:37:07.727Z,101787.77
2019-03-19T10:39:38.087Z,101779.63
2019-03-19T10:42:08.456Z,101786.03
2019-03-19T10:44:38.930Z,101782.23
2019-03-19T10:47:09.286Z,101788.48
2019-03-19T10:49:39.645Z,101796.89
2019-03-19T10:52:10.008Z,101791.36
2019-03-19T10:54:40.398Z,101801.10
2019-03-19T10:57:10.757Z,101794.14
2019-03-19T10:59:48.797Z,101791.95
2019-03-19T11:02:13.214Z,101800.43
2019-03-19T11:04:43.577Z,101800.95
2019-03-19T11:07:15.256Z,101800.63
2019-03-19T11:09:45.818Z,101797.30
2019-03-19T11:12:16.189Z,101791.16
2019-03-19T11:14:46.556Z,101786.20
2019-03-19T11:17:17.896Z,101790.75
2019-03-19T11:19:48.292Z,101799.62
2019-03-19T11:22:18.661Z,101801.52
2019-03-19T11:24:49.293Z,101798.09
2019-03-19T11:27:19.654Z,101799.14
2019-03-19T11:29:59.550Z,101801.05
2019-03-19T11:32:22.099Z,101800.67
2019-03-19T11:34:52.445Z,101798.81
2019-03-19T11:37:22.805Z,101809.11
2019-03-19T11:39:53.170Z,101813.23
2019-03-19T11:42:23.528Z,101826.34
2019-03-19T11:44:53.888Z,101824.86
2019-03-19T11:47:24.253Z,101822.42
2019-03-19T11:49:54.633Z,101822.09
2019-03-19T11:52:25.569Z,101826.77
2019-03-19T11:54:55.925Z,101822.76
2019-03-19T11:57:26.278Z,101827.34
2019-03-19T11:59:56.626Z,101821.98
2019-03-19T12:02:26.988Z,101822.14
2019-03-19T12:04:57.363Z,101830.41
2019-03-19T12:07:27.717Z,101831.45
2019-03-19T12:09:59.053Z,101820.20
2019-03-19T12:12:29.401Z,101829.11
2019-03-19T12:14:59.759Z,101824.16
2019-03-19T12:17:30.215Z,101831.98
2019-03-19T12:20:00.557Z,101827.45
2019-03-19T12:22:30.900Z,101825.26
2019-03-19T12:25:01.243Z,101833.60
2019-03-19T12:27:31.618Z,101832.53
2019-03-19T12:30:01.968Z,101832.91
2019-03-19T12:32:33.309Z,101831.31
2019-03-19T12:35:04.134Z,101830.52
2019-03-19T12:37:34.501Z,101835.61
2019-03-19T12:40:11.084Z,101835.82
2019-03-19T12:42:41.431Z,101838.95
2019-03-19T12:45:19.641Z,101832.08
2019-03-19T12:47:50.142Z,101833.19
2019-03-19T12:50:21.760Z,101834.47
2019-03-19T12:52:52.131Z,101832.98
2019-03-19T12:55:22.520Z,101837.95
2019-03-19T12:57:52.899Z,101831.30
2019-03-19T13:00:33.597Z,101833.16
2019-03-19T13:02:56.452Z,101838.59
2019-03-19T13:05:26.807Z,101839.91
2019-03-19T13:07:57.198Z,101839.88
2019-03-19T13:10:27.584Z,101833.36
2019-03-19T13:12:57.946Z,101839.61
2019-03-19T13:15:28.431Z,101841.20
2019-03-19T13:17:58.801Z,101833.52
2019-03-19T13:20:29.180Z,101837.70
2019-03-19T13:22:59.533Z,101845.45
2019-03-19T13:25:29.899Z,101846.97
2019-03-19T13:28:00.266Z,101851.39
2019-03-19T13:30:31.884Z,101850.91
2019-03-19T13:33:02.301Z,101849.44
2019-03-19T13:35:33.610Z,101856.11
2019-03-19T13:38:03.955Z,101853.72
2019-03-19T13:40:34.310Z,101857.14
2019-03-19T13:43:04.752Z,101856.88
2019-03-19T13:45:35.104Z,101864.53
2019-03-19T13:48:05.478Z,101865.48
2019-03-19T13:50:35.868Z,101857.80
2019-03-19T13:53:06.803Z,101863.93
2019-03-19T13:55:37.165Z,101863.26
2019-03-19T13:58:07.571Z,101861.22
2019-03-19T14:00:37.933Z,101866.67
2019-03-19T14:03:08.581Z,101867.79
2019-03-19T14:05:38.969Z,101866.77
2019-03-19T14:08:09.472Z,101872.95
2019-03-19T14:10:39.843Z,101869.99
2019-03-19T14:13:10.220Z,101866.17
2019-03-19T14:15:40.598Z,101871.22
2019-03-19T14:18:10.971Z,101873.05
2019-03-19T14:20:41.343Z,101874.53
2019-03-19T14:23:11.769Z,101871.95
2019-03-19T14:25:42.226Z,101875.16
2019-03-19T14:28:13.282Z,101872.95
2019-03-19T14:30:44.040Z,101874.66
2019-03-19T14:33:14.401Z,101871.47
2019-03-19T14:35:45.615Z,101875.39
2019-03-19T14:38:15.978Z,101880.69
2019-03-19T14:40:47.968Z,101877.84
2019-03-19T14:43:18.380Z,101872.38
2019-03-19T14:45:48.853Z,101875.69
2019-03-19T14:48:19.209Z,101877.72
2019-03-19T14:50:49.602Z,101879.69
2019-03-19T14:53:20.020Z,101877.36
2019-03-19T14:55:50.374Z,101881.84
2019-03-19T14:58:23.448Z,101869.47
2019-03-19T15:00:53.846Z,101882.15
2019-03-19T15:03:24.197Z,101878.71
2019-03-19T15:05:54.581Z,101885.95
2019-03-19T15:08:25.623Z,101885.70
2019-03-19T15:10:56.156Z,101880.28
2019-03-19T15:13:26.634Z,101882.25
2019-03-19T15:15:56.989Z,101883.99
2019-03-19T15:18:27.377Z,101883.78
2019-03-19T15:20:58.342Z,101884.80
2019-03-19T15:23:28.789Z,101886.32
2019-03-19T15:25:59.453Z,101888.14
2019-03-19T15:28:30.929Z,101892.99
2019-03-19T15:31:01.307Z,101895.03
2019-03-19T15:33:31.686Z,101897.32
2019-03-19T15:36:02.101Z,101905.17
2019-03-19T15:38:32.452Z,101913.70
2019-03-19T15:41:02.772Z,101917.83
2019-03-19T15:43:33.194Z,101925.03
2019-03-19T15:46:03.663Z,101933.03
2019-03-19T15:48:34.035Z,101929.31
2019-03-19T15:51:04.558Z,101940.14
2019-03-19T15:53:34.952Z,101945.05
2019-03-19T15:56:05.304Z,101948.87
2019-03-19T15:58:35.686Z,101942.85
2019-03-19T16:01:06.042Z,101945.56
2019-03-19T16:03:36.468Z,101954.26
2019-03-19T16:06:07.210Z,101950.80
2019-03-19T16:08:38.342Z,101948.09
2019-03-19T16:11:08.910Z,101957.66
2019-03-19T16:13:39.271Z,101954.25
2019-03-19T16:16:10.164Z,101953.28
2019-03-19T16:18:40.560Z,101958.20
2019-03-19T16:21:12.565Z,101969.88
2019-03-19T16:23:42.934Z,101963.33
2019-03-19T16:26:13.344Z,101970.90
2019-03-19T16:28:44.702Z,101971.81
2019-03-19T16:31:15.248Z,101979.81
2019-03-19T16:33:47.100Z,101982.19
2019-03-19T16:36:18.495Z,101980.78
2019-03-19T16:38:49.369Z,101987.44
2019-03-19T16:41:19.766Z,101991.81
2019-03-19T16:43:52.532Z,101994.52
2019-03-19T16:46:22.871Z,102005.44
2019-03-19T16:48:53.210Z,102006.13
2019-03-19T16:51:23.571Z,102007.25
2019-03-19T16:53:53.968Z,102008.02
2019-03-19T16:56:24.399Z,102005.89
2019-03-19T16:58:55.304Z,102017.22
2019-03-19T17:01:25.968Z,102014.05
2019-03-19T17:03:56.423Z,102015.12
2019-03-19T17:06:26.772Z,102021.34
2019-03-19T17:08:57.680Z,102023.65
2019-03-19T17:11:28.182Z,102032.81
2019-03-19T17:13:59.047Z,102035.86
2019-03-19T17:16:29.656Z,102033.42
2019-03-19T17:19:03.272Z,102042.87
2019-03-19T17:21:34.425Z,102050.98
2019-03-19T17:24:05.030Z,102054.25
2019-03-19T17:26:35.614Z,102055.36
2019-03-19T17:29:06.709Z,102055.49
2019-03-19T17:31:39.164Z,102050.16
2019-03-19T17:34:12.236Z,102057.01
2019-03-19T17:36:43.162Z,102064.45
2019-03-19T17:39:13.556Z,102070.91
2019-03-19T17:41:44.536Z,102065.06
2019-03-19T17:44:15.310Z,102065.34
2019-03-19T17:46:46.357Z,102066.77
2019-03-19T17:49:18.494Z,102074.86
2019-03-19T17:51:48.896Z,102077.28
2019-03-19T17:54:19.653Z,102075.64
2019-03-19T17:56:51.646Z,102083.43
2019-03-19T17:59:22.014Z,102083.24
2019-03-19T18:01:53.265Z,102092.89
2019-03-19T18:04:23.648Z,102101.37
2019-03-19T18:06:54.621Z,102099.66
2019-03-19T18:09:25.380Z,102103.91
2019-03-19T18:11:56.359Z,102110.64
2019-03-19T18:14:27.766Z,102109.30
2019-03-19T18:16:58.299Z,102110.57
2019-03-19T18:19:28.690Z,102113.08
2019-03-19T18:21:59.581Z,102117.11
2019-03-19T18:24:29.943Z,102124.44
2019-03-19T18:27:02.224Z,102118.47
2019-03-19T18:29:32.579Z,102125.11
2019-03-19T18:32:02.998Z,102122.41
2019-03-19T18:34:33.409Z,102127.23
2019-03-19T18:37:05.422Z,102128.00
2019-03-19T18:39:36.911Z,102129.25
2019-03-19T18:42:08.467Z,102131.18
2019-03-19T18:44:40.287Z,102135.21
2019-03-19T18:47:12.488Z,102141.00
2019-03-19T18:49:43.123Z,102145.13
2019-03-19T18:52:16.231Z,102147.45
2019-03-19T18:54:46.950Z,102145.23
2019-03-19T18:57:17.331Z,102147.25
2019-03-19T18:59:48.049Z,102145.72
2019-03-19T19:02:18.644Z,102151.67
2019-03-19T19:04:49.431Z,102152.21
2019-03-19T19:07:20.011Z,102157.62
2019-03-19T19:09:50.385Z,102156.36
2019-03-19T19:12:21.899Z,102163.83
2019-03-19T19:14:53.973Z,102155.56
2019-03-19T19:17:25.873Z,102169.81
2019-03-19T19:19:56.449Z,102177.12
2019-03-19T19:22:28.568Z,102181.44
2019-03-19T19:24:59.342Z,102179.70
2019-03-19T19:27:31.406Z,102182.14
2019-03-19T19:30:01.916Z,102181.06
2019-03-19T19:32:32.879Z,102182.88
2019-03-19T19:35:03.648Z,102189.51
2019-03-19T19:37:34.456Z,102190.97
2019-03-19T19:40:16.429Z,102193.83
2019-03-19T19:42:48.273Z,102199.59
2019-03-19T19:45:20.795Z,102197.41
2019-03-19T19:47:52.941Z,102197.59
2019-03-19T19:50:23.944Z,102201.44
2019-03-19T19:52:56.031Z,102200.51
2019-03-19T19:55:27.119Z,102203.89
2019-03-19T19:57:58.065Z,102201.66
2019-03-19T20:00:28.830Z,102200.97
2019-03-19T20:02:59.611Z,102207.54
2019-03-19T20:05:30.228Z,102214.75
2019-03-19T20:08:00.808Z,102212.79
2019-03-19T20:10:31.375Z,102219.30
2019-03-19T20:13:02.352Z,102211.98
2019-03-19T20:15:33.648Z,102220.81
2019-03-19T20:18:04.911Z,102219.30
2019-03-19T20:20:35.515Z,102219.08
2019-03-19T20:23:05.903Z,102231.23
2019-03-19T20:25:36.283Z,102227.81
2019-03-19T20:28:06.711Z,102230.51
2019-03-19T20:30:37.084Z,102228.27
2019-03-19T20:33:07.453Z,102231.59
2019-03-19T20:35:37.845Z,102238.36
2019-03-19T20:38:08.250Z,102233.24
2019-03-19T20:40:39.014Z,102237.70
2019-03-19T20:43:09.426Z,102243.20
2019-03-19T20:45:40.169Z,102250.70
2019-03-19T20:48:10.547Z,102249.86
2019-03-19T20:50:41.157Z,102256.86
2019-03-19T20:53:11.603Z,102266.21
2019-03-19T20:55:42.054Z,102266.56
2019-03-19T20:58:14.193Z,102272.60
2019-03-19T21:00:45.999Z,102268.91
2019-03-19T21:03:16.413Z,102264.28
2019-03-19T21:05:46.826Z,102267.51
2019-03-19T21:08:17.217Z,102277.64
2019-03-19T21:10:47.774Z,102277.16
2019-03-19T21:13:20.001Z,102269.73
2019-03-19T21:15:50.429Z,102277.02
2019-03-19T21:18:21.153Z,102278.42
2019-03-19T21:20:53.165Z,102279.11
2019-03-19T21:23:25.319Z,102281.02
2019-03-19T21:25:56.246Z,102283.84
2019-03-19T21:28:26.767Z,102284.27
2019-03-19T21:30:58.845Z,102288.05
2019-03-19T21:33:29.258Z,102294.98
2019-03-19T21:35:59.677Z,102285.56
2019-03-19T21:38:30.055Z,102290.58
2019-03-19T21:41:02.060Z,102294.76
2019-03-19T21:43:32.436Z,102297.98
2019-03-19T21:46:02.859Z,102289.68
2019-03-19T21:48:33.228Z,102292.73
2019-03-19T21:51:03.740Z,102293.77
2019-03-19T21:53:34.184Z,102290.77
2019-03-19T21:56:04.558Z,102293.46
2019-03-19T21:58:35.882Z,102297.58
2019-03-19T22:01:06.247Z,102303.45
2019-03-19T22:03:36.648Z,102300.76
2019-03-19T22:06:06.985Z,102299.80
2019-03-19T22:08:37.359Z,102295.55
2019-03-19T22:11:07.935Z,102297.11
2019-03-19T22:13:38.363Z,102302.35
2019-03-19T22:16:10.808Z,102302.20
2019-03-19T22:18:41.200Z,102301.06
2019-03-19T22:21:11.578Z,102300.09
2019-03-19T22:23:44.303Z,102295.63
2019-03-19T22:26:14.666Z,102305.22
2019-03-19T22:28:45.031Z,102304.98
2019-03-19T22:31:15.420Z,102308.85
2019-03-19T22:33:45.797Z,102311.72
2019-03-19T22:36:16.212Z,102308.56
2019-03-19T22:38:46.579Z,102310.81
2019-03-19T22:41:16.970Z,102315.95
2019-03-19T22:43:47.458Z,102311.72
2019-03-19T22:46:22.063Z,102317.48
2019-03-19T22:48:49.951Z,102326.91
2019-03-19T22:51:20.376Z,102326.59
2019-03-19T22:53:50.759Z,102323.57
2019-03-19T22:56:21.256Z,102324.86
2019-03-19T22:58:51.642Z,102324.55
2019-03-19T23:01:22.054Z,102326.14
2019-03-19T23:03:52.448Z,102324.47
2019-03-19T23:06:22.824Z,102323.76
2019-03-19T23:08:53.216Z,102325.24
2019-03-19T23:11:23.616Z,102329.03
2019-03-19T23:13:54.248Z,102332.66
2019-03-19T23:16:24.655Z,102335.11
2019-03-19T23:18:55.035Z,102335.45
2019-03-19T23:21:25.417Z,102340.83
2019-03-19T23:23:55.794Z,102337.50
2019-03-19T23:26:26.265Z,102336.62
2019-03-19T23:28:56.652Z,102337.42
2019-03-19T23:31:27.029Z,102345.33
2019-03-19T23:33:57.391Z,102344.93
2019-03-19T23:36:27.765Z,102345.73
2019-03-19T23:38:58.145Z,102348.50
2019-03-19T23:41:28.510Z,102347.70
2019-03-19T23:43:59.036Z,102345.02
2019-03-19T23:46:29.399Z,102347.78
2019-03-19T23:48:59.846Z,102352.53
2019-03-19T23:51:30.189Z,102360.28
2019-03-19T23:54:00.540Z,102357.51
2019-03-19T23:56:31.879Z,102357.27
2019-03-19T23:59:02.256Z,102356.88
